Smithfield, Rhode Island
Current Conditions -  °F | °C
As of 4:35 AM on Thursday 23 Oct 2014 (Local Time) from KSFZ Reporting Station
Overcast Overcast  
Wind Chill: 39°   Ceiling: 600
Heat Index: 46°   Visibility: 10mi
Dew Point: 39°   Wind: 22mph
Humidity: 76%   Direction: 360°N
Pressure: 29.62"   Gusts: 35mph
Location:  41.92°N, 71.55°W
Report Text: KSFZ 230835Z 36019G30KT 10SM BKN006 OVC014 08/04 A2962 RMK AO1 P0002
Loading
Personal Weather Stations






























Interactive Weather Map
Tropical Storm Tracking
New forecast layout! Learn more

10-Day Weather Forecast

Advertisements
Track Severe Weather on mobile